sensor_id;sensor_type;location;lat;lon;timestamp;P1;durP1;ratioP1;P2;durP2;ratioP2
38909;SDS011;24676;51.360;12.354;2022-11-13T05:00:28;6.93;;;3.75;;
38909;SDS011;24676;51.360;12.354;2022-11-13T05:03:13;9.57;;;4.10;;
38909;SDS011;24676;51.360;12.354;2022-11-13T05:06:01;4.30;;;3.88;;
38909;SDS011;24676;51.360;12.354;2022-11-13T05:08:49;6.60;;;5.65;;
38909;SDS011;24676;51.360;12.354;2022-11-13T05:11:33;4.93;;;3.88;;
38909;SDS011;24676;51.360;12.354;2022-11-13T05:14:18;18.17;;;5.60;;
38909;SDS011;24676;51.360;12.354;2022-11-13T05:17:02;3.60;;;3.08;;
38909;SDS011;24676;51.360;12.354;2022-11-13T05:19:47;5.75;;;2.90;;
38909;SDS011;24676;51.360;12.354;2022-11-13T05:22:31;6.75;;;4.80;;
38909;SDS011;24676;51.360;12.354;2022-11-13T05:25:15;5.47;;;4.95;;
38909;SDS011;24676;51.360;12.354;2022-11-13T05:28:00;6.25;;;4.75;;
38909;SDS011;24676;51.360;12.354;2022-11-13T05:30:44;8.40;;;3.78;;
38909;SDS011;24676;51.360;12.354;2022-11-13T05:33:28;9.32;;;3.33;;
38909;SDS011;24676;51.360;12.354;2022-11-13T05:36:13;7.63;;;4.03;;
38909;SDS011;24676;51.360;12.354;2022-11-13T05:38:58;6.25;;;4.40;;
38909;SDS011;24676;51.360;12.354;2022-11-13T05:41:42;11.60;;;4.00;;
38909;SDS011;24676;51.360;12.354;2022-11-13T05:44:26;8.23;;;4.00;;
38909;SDS011;24676;51.360;12.354;2022-11-13T05:47:10;8.05;;;3.75;;
38909;SDS011;24676;51.360;12.354;2022-11-13T05:49:54;8.45;;;5.28;;
38909;SDS011;24676;51.360;12.354;2022-11-13T05:52:38;8.30;;;4.88;;
38909;SDS011;24676;51.360;12.354;2022-11-13T05:55:22;11.13;;;3.83;;
38909;SDS011;24676;51.360;12.354;2022-11-13T05:58:07;4.30;;;2.88;;
38909;SDS011;24676;51.360;12.354;2022-11-13T06:00:51;4.82;;;3.72;;
38909;SDS011;24676;51.360;12.354;2022-11-13T06:03:36;6.22;;;3.03;;
38909;SDS011;24676;51.360;12.354;2022-11-13T06:06:21;7.45;;;3.55;;
38909;SDS011;24676;51.360;12.354;2022-11-13T06:09:06;10.57;;;3.97;;
38909;SDS011;24676;51.360;12.354;2022-11-13T06:11:50;6.93;;;4.55;;
38909;SDS011;24676;51.360;12.354;2022-11-13T06:14:34;6.13;;;3.53;;
38909;SDS011;24676;51.360;12.354;2022-11-13T06:17:19;4.80;;;3.40;;
38909;SDS011;24676;51.360;12.354;2022-11-13T06:20:03;5.13;;;3.03;;
38909;SDS011;24676;51.360;12.354;2022-11-13T06:22:48;19.63;;;4.82;;
38909;SDS011;24676;51.360;12.354;2022-11-13T06:25:32;8.82;;;3.58;;
38909;SDS011;24676;51.360;12.354;2022-11-13T06:28:16;5.90;;;3.20;;
38909;SDS011;24676;51.360;12.354;2022-11-13T06:31:07;11.10;;;4.53;;
38909;SDS011;24676;51.360;12.354;2022-11-13T06:33:53;7.55;;;5.85;;
38909;SDS011;24676;51.360;12.354;2022-11-13T06:36:38;4.82;;;2.83;;
38909;SDS011;24676;51.360;12.354;2022-11-13T06:39:22;7.32;;;4.53;;
38909;SDS011;24676;51.360;12.354;2022-11-13T06:42:07;6.72;;;3.80;;
38909;SDS011;24676;51.360;12.354;2022-11-13T06:44:51;4.88;;;3.25;;
38909;SDS011;24676;51.360;12.354;2022-11-13T06:47:35;6.38;;;3.10;;
38909;SDS011;24676;51.360;12.354;2022-11-13T06:50:20;5.53;;;2.95;;
38909;SDS011;24676;51.360;12.354;2022-11-13T06:53:04;4.32;;;3.53;;
38909;SDS011;24676;51.360;12.354;2022-11-13T06:55:48;7.88;;;3.42;;
38909;SDS011;24676;51.360;12.354;2022-11-13T06:58:33;7.95;;;3.53;;
38909;SDS011;24676;51.360;12.354;2022-11-13T07:01:18;5.55;;;4.32;;
38909;SDS011;24676;51.360;12.354;2022-11-13T07:04:04;6.07;;;3.25;;
38909;SDS011;24676;51.360;12.354;2022-11-13T07:06:49;4.18;;;3.33;;
38909;SDS011;24676;51.360;12.354;2022-11-13T07:09:33;6.40;;;3.47;;
38909;SDS011;24676;51.360;12.354;2022-11-13T07:12:18;8.02;;;3.70;;
38909;SDS011;24676;51.360;12.354;2022-11-13T07:15:02;7.45;;;3.90;;
38909;SDS011;24676;51.360;12.354;2022-11-13T07:17:47;8.13;;;4.72;;
38909;SDS011;24676;51.360;12.354;2022-11-13T07:20:31;8.38;;;3.35;;
38909;SDS011;24676;51.360;12.354;2022-11-13T07:23:16;5.32;;;3.88;;
38909;SDS011;24676;51.360;12.354;2022-11-13T07:26:01;8.45;;;4.20;;
38909;SDS011;24676;51.360;12.354;2022-11-13T07:28:46;8.70;;;4.63;;
38909;SDS011;24676;51.360;12.354;2022-11-13T07:31:30;9.90;;;4.65;;
38909;SDS011;24676;51.360;12.354;2022-11-13T07:34:14;5.45;;;3.55;;
38909;SDS011;24676;51.360;12.354;2022-11-13T07:36:59;7.15;;;4.40;;
38909;SDS011;24676;51.360;12.354;2022-11-13T07:39:43;5.05;;;2.50;;
38909;SDS011;24676;51.360;12.354;2022-11-13T07:42:27;7.63;;;3.88;;
38909;SDS011;24676;51.360;12.354;2022-11-13T07:45:11;9.95;;;5.03;;
38909;SDS011;24676;51.360;12.354;2022-11-13T07:47:59;8.73;;;3.70;;
38909;SDS011;24676;51.360;12.354;2022-11-13T07:50:44;11.95;;;4.38;;
38909;SDS011;24676;51.360;12.354;2022-11-13T07:53:28;5.05;;;3.20;;
38909;SDS011;24676;51.360;12.354;2022-11-13T07:56:13;10.13;;;4.18;;
38909;SDS011;24676;51.360;12.354;2022-11-13T07:58:57;4.90;;;2.53;;
38909;SDS011;24676;51.360;12.354;2022-11-13T08:01:42;9.65;;;4.15;;
38909;SDS011;24676;51.360;12.354;2022-11-13T08:04:26;11.90;;;4.55;;
38909;SDS011;24676;51.360;12.354;2022-11-13T08:07:12;8.32;;;4.30;;
38909;SDS011;24676;51.360;12.354;2022-11-13T08:09:56;8.80;;;3.63;;
38909;SDS011;24676;51.360;12.354;2022-11-13T08:12:40;4.53;;;4.07;;
38909;SDS011;24676;51.360;12.354;2022-11-13T08:15:25;4.80;;;3.08;;
38909;SDS011;24676;51.360;12.354;2022-11-13T08:18:09;7.30;;;4.15;;
38909;SDS011;24676;51.360;12.354;2022-11-13T08:20:53;5.80;;;2.78;;
38909;SDS011;24676;51.360;12.354;2022-11-13T08:23:39;7.47;;;3.42;;
38909;SDS011;24676;51.360;12.354;2022-11-13T08:26:24;10.63;;;5.50;;
38909;SDS011;24676;51.360;12.354;2022-11-13T08:29:08;6.22;;;3.88;;
38909;SDS011;24676;51.360;12.354;2022-11-13T08:31:52;9.80;;;5.00;;
38909;SDS011;24676;51.360;12.354;2022-11-13T08:34:36;8.68;;;3.80;;
38909;SDS011;24676;51.360;12.354;2022-11-13T08:37:21;5.85;;;3.35;;
38909;SDS011;24676;51.360;12.354;2022-11-13T08:40:05;8.32;;;4.75;;
38909;SDS011;24676;51.360;12.354;2022-11-13T08:42:50;11.40;;;5.13;;
38909;SDS011;24676;51.360;12.354;2022-11-13T08:45:34;7.07;;;4.30;;
38909;SDS011;24676;51.360;12.354;2022-11-13T08:48:19;6.63;;;3.97;;
38909;SDS011;24676;51.360;12.354;2022-11-13T08:51:03;7.10;;;3.67;;
38909;SDS011;24676;51.360;12.354;2022-11-13T08:53:48;9.38;;;5.57;;
38909;SDS011;24676;51.360;12.354;2022-11-13T08:56:32;9.68;;;4.38;;
38909;SDS011;24676;51.360;12.354;2022-11-13T08:59:17;10.60;;;3.92;;
38909;SDS011;24676;51.360;12.354;2022-11-13T09:02:01;10.20;;;4.53;;
38909;SDS011;24676;51.360;12.354;2022-11-13T09:04:46;10.82;;;5.97;;
38909;SDS011;24676;51.360;12.354;2022-11-13T09:07:30;15.27;;;5.90;;
38909;SDS011;24676;51.360;12.354;2022-11-13T09:10:15;12.80;;;5.80;;
38909;SDS011;24676;51.360;12.354;2022-11-13T09:13:02;8.30;;;4.80;;
38909;SDS011;24676;51.360;12.354;2022-11-13T09:15:47;8.30;;;4.60;;
38909;SDS011;24676;51.360;12.354;2022-11-13T09:18:31;10.88;;;4.85;;
38909;SDS011;24676;51.360;12.354;2022-11-13T09:21:15;14.32;;;6.18;;
38909;SDS011;24676;51.360;12.354;2022-11-13T09:23:59;10.40;;;5.57;;
38909;SDS011;24676;51.360;12.354;2022-11-13T09:26:44;7.78;;;4.25;;
38909;SDS011;24676;51.360;12.354;2022-11-13T09:29:28;13.50;;;6.72;;
38909;SDS011;24676;51.360;12.354;2022-11-13T09:32:13;12.90;;;6.15;;
38909;SDS011;24676;51.360;12.354;2022-11-13T09:34:59;13.23;;;7.03;;
38909;SDS011;24676;51.360;12.354;2022-11-13T09:37:44;13.77;;;6.53;;
38909;SDS011;24676;51.360;12.354;2022-11-13T09:40:35;10.23;;;6.38;;
38909;SDS011;24676;51.360;12.354;2022-11-13T09:43:33;10.07;;;6.38;;
38909;SDS011;24676;51.360;12.354;2022-11-13T09:49:34;9.95;;;4.65;;
38909;SDS011;24676;51.360;12.354;2022-11-13T09:52:57;12.35;;;6.40;;
38909;SDS011;24676;51.360;12.354;2022-11-13T09:55:37;12.48;;;5.32;;
38909;SDS011;24676;51.360;12.354;2022-11-13T10:04:37;10.75;;;6.45;;
38909;SDS011;24676;51.360;12.354;2022-11-13T10:16:47;11.48;;;5.60;;
38909;SDS011;24676;51.360;12.354;2022-11-13T10:19:46;8.50;;;4.70;;
38909;SDS011;24676;51.360;12.354;2022-11-13T10:23:13;8.82;;;6.43;;
38909;SDS011;24676;51.360;12.354;2022-11-13T10:25:59;9.68;;;6.78;;
38909;SDS011;24676;51.360;12.354;2022-11-13T10:29:00;13.68;;;4.97;;
38909;SDS011;24676;51.360;12.354;2022-11-13T10:31:53;10.45;;;5.85;;
38909;SDS011;24676;51.360;12.354;2022-11-13T10:34:38;15.13;;;8.02;;
38909;SDS011;24676;51.360;12.354;2022-11-13T10:37:44;12.35;;;6.32;;
38909;SDS011;24676;51.360;12.354;2022-11-13T10:40:50;14.60;;;6.15;;
38909;SDS011;24676;51.360;12.354;2022-11-13T10:43:34;7.85;;;5.50;;
38909;SDS011;24676;51.360;12.354;2022-11-13T10:46:23;17.95;;;8.80;;
38909;SDS011;24676;51.360;12.354;2022-11-13T10:49:15;13.68;;;5.68;;
38909;SDS011;24676;51.360;12.354;2022-11-13T10:52:22;17.27;;;9.93;;
38909;SDS011;24676;51.360;12.354;2022-11-13T10:55:13;14.82;;;6.90;;
38909;SDS011;24676;51.360;12.354;2022-11-13T10:58:13;13.77;;;6.55;;
38909;SDS011;24676;51.360;12.354;2022-11-13T11:00:59;7.18;;;5.57;;
38909;SDS011;24676;51.360;12.354;2022-11-13T11:03:47;11.65;;;5.95;;
38909;SDS011;24676;51.360;12.354;2022-11-13T11:06:33;8.60;;;5.78;;
38909;SDS011;24676;51.360;12.354;2022-11-13T11:09:27;7.93;;;5.05;;
38909;SDS011;24676;51.360;12.354;2022-11-13T11:15:05;7.30;;;5.45;;
38909;SDS011;24676;51.360;12.354;2022-11-13T11:18:05;10.88;;;6.57;;
38909;SDS011;24676;51.360;12.354;2022-11-13T11:21:05;13.50;;;6.63;;
38909;SDS011;24676;51.360;12.354;2022-11-13T11:24:01;9.75;;;5.53;;
38909;SDS011;24676;51.360;12.354;2022-11-13T11:27:00;10.73;;;6.38;;
38909;SDS011;24676;51.360;12.354;2022-11-13T11:30:01;5.97;;;4.20;;
38909;SDS011;24676;51.360;12.354;2022-11-13T11:32:59;8.63;;;5.13;;
38909;SDS011;24676;51.360;12.354;2022-11-13T11:45:15;11.40;;;6.22;;
38909;SDS011;24676;51.360;12.354;2022-11-13T11:48:02;12.95;;;7.03;;
38909;SDS011;24676;51.360;12.354;2022-11-13T12:03:07;10.63;;;6.93;;
38909;SDS011;24676;51.360;12.354;2022-11-13T12:11:51;13.15;;;6.07;;
38909;SDS011;24676;51.360;12.354;2022-11-13T12:14:48;12.30;;;6.93;;
38909;SDS011;24676;51.360;12.354;2022-11-13T12:21:15;11.70;;;8.03;;
38909;SDS011;24676;51.360;12.354;2022-11-13T12:24:36;18.73;;;9.20;;
38909;SDS011;24676;51.360;12.354;2022-11-13T12:27:43;13.10;;;6.28;;
38909;SDS011;24676;51.360;12.354;2022-11-13T12:30:50;13.07;;;9.27;;
38909;SDS011;24676;51.360;12.354;2022-11-13T12:34:05;17.02;;;7.90;;
38909;SDS011;24676;51.360;12.354;2022-11-13T12:37:15;14.18;;;8.05;;
38909;SDS011;24676;51.360;12.354;2022-11-13T12:46:08;12.75;;;7.72;;
38909;SDS011;24676;51.360;12.354;2022-11-13T12:48:53;14.50;;;8.10;;
38909;SDS011;24676;51.360;12.354;2022-11-13T12:51:38;11.70;;;7.53;;
38909;SDS011;24676;51.360;12.354;2022-11-13T12:57:19;12.93;;;7.85;;
38909;SDS011;24676;51.360;12.354;2022-11-13T13:00:25;11.57;;;6.47;;
38909;SDS011;24676;51.360;12.354;2022-11-13T13:06:47;13.70;;;7.15;;
38909;SDS011;24676;51.360;12.354;2022-11-13T13:15:58;11.77;;;6.82;;
38909;SDS011;24676;51.360;12.354;2022-11-13T13:18:45;14.32;;;8.38;;
38909;SDS011;24676;51.360;12.354;2022-11-13T13:21:38;16.15;;;8.60;;
38909;SDS011;24676;51.360;12.354;2022-11-13T13:24:36;15.75;;;7.78;;
38909;SDS011;24676;51.360;12.354;2022-11-13T13:27:25;13.82;;;7.57;;
38909;SDS011;24676;51.360;12.354;2022-11-13T13:30:15;11.45;;;7.03;;
38909;SDS011;24676;51.360;12.354;2022-11-13T13:39:24;18.30;;;7.55;;
38909;SDS011;24676;51.360;12.354;2022-11-13T13:45:11;17.50;;;7.43;;
38909;SDS011;24676;51.360;12.354;2022-11-13T13:48:07;14.10;;;7.97;;
38909;SDS011;24676;51.360;12.354;2022-11-13T13:50:58;11.50;;;7.32;;
38909;SDS011;24676;51.360;12.354;2022-11-13T13:53:44;18.52;;;8.93;;
38909;SDS011;24676;51.360;12.354;2022-11-13T13:56:29;14.32;;;6.55;;
38909;SDS011;24676;51.360;12.354;2022-11-13T13:59:15;16.30;;;7.30;;
38909;SDS011;24676;51.360;12.354;2022-11-13T14:02:12;12.60;;;7.38;;
38909;SDS011;24676;51.360;12.354;2022-11-13T14:05:00;10.20;;;6.72;;
38909;SDS011;24676;51.360;12.354;2022-11-13T14:07:45;14.25;;;6.93;;
38909;SDS011;24676;51.360;12.354;2022-11-13T14:10:29;12.40;;;7.07;;
38909;SDS011;24676;51.360;12.354;2022-11-13T14:13:22;13.30;;;6.72;;
38909;SDS011;24676;51.360;12.354;2022-11-13T14:16:08;15.10;;;6.38;;
38909;SDS011;24676;51.360;12.354;2022-11-13T14:19:01;10.38;;;6.97;;
38909;SDS011;24676;51.360;12.354;2022-11-13T14:21:51;13.57;;;7.28;;
38909;SDS011;24676;51.360;12.354;2022-11-13T14:24:45;16.45;;;9.07;;
38909;SDS011;24676;51.360;12.354;2022-11-13T14:27:33;11.75;;;7.65;;
38909;SDS011;24676;51.360;12.354;2022-11-13T14:30:24;14.20;;;8.65;;
38909;SDS011;24676;51.360;12.354;2022-11-13T14:33:13;10.40;;;5.72;;
38909;SDS011;24676;51.360;12.354;2022-11-13T14:36:00;13.13;;;8.05;;
38909;SDS011;24676;51.360;12.354;2022-11-13T14:38:46;11.02;;;5.97;;
38909;SDS011;24676;51.360;12.354;2022-11-13T14:41:39;15.02;;;7.10;;
38909;SDS011;24676;51.360;12.354;2022-11-13T14:44:34;12.60;;;7.22;;
38909;SDS011;24676;51.360;12.354;2022-11-13T14:53:08;18.52;;;8.80;;
38909;SDS011;24676;51.360;12.354;2022-11-13T14:55:54;21.10;;;9.45;;
38909;SDS011;24676;51.360;12.354;2022-11-13T14:58:41;16.27;;;8.32;;
38909;SDS011;24676;51.360;12.354;2022-11-13T15:01:31;13.80;;;7.27;;
38909;SDS011;24676;51.360;12.354;2022-11-13T15:04:15;11.90;;;7.13;;
38909;SDS011;24676;51.360;12.354;2022-11-13T15:07:00;12.02;;;6.68;;
38909;SDS011;24676;51.360;12.354;2022-11-13T15:09:46;10.23;;;6.38;;
38909;SDS011;24676;51.360;12.354;2022-11-13T15:12:32;11.20;;;5.85;;
38909;SDS011;24676;51.360;12.354;2022-11-13T15:15:20;9.15;;;6.22;;
38909;SDS011;24676;51.360;12.354;2022-11-13T15:18:08;15.27;;;6.38;;
38909;SDS011;24676;51.360;12.354;2022-11-13T15:20:59;14.57;;;6.85;;
38909;SDS011;24676;51.360;12.354;2022-11-13T15:23:43;10.55;;;6.68;;
38909;SDS011;24676;51.360;12.354;2022-11-13T15:26:28;11.55;;;5.70;;
38909;SDS011;24676;51.360;12.354;2022-11-13T15:29:12;10.57;;;6.70;;
38909;SDS011;24676;51.360;12.354;2022-11-13T15:31:56;11.30;;;7.45;;
38909;SDS011;24676;51.360;12.354;2022-11-13T15:34:40;10.80;;;6.03;;
38909;SDS011;24676;51.360;12.354;2022-11-13T15:37:25;10.65;;;6.07;;
38909;SDS011;24676;51.360;12.354;2022-11-13T15:40:09;9.98;;;6.53;;
38909;SDS011;24676;51.360;12.354;2022-11-13T15:42:55;12.70;;;6.57;;
38909;SDS011;24676;51.360;12.354;2022-11-13T15:45:41;8.10;;;5.72;;
38909;SDS011;24676;51.360;12.354;2022-11-13T15:48:25;11.88;;;6.07;;
38909;SDS011;24676;51.360;12.354;2022-11-13T15:51:11;11.80;;;6.00;;
38909;SDS011;24676;51.360;12.354;2022-11-13T15:54:06;13.10;;;6.80;;
38909;SDS011;24676;51.360;12.354;2022-11-13T15:57:04;10.23;;;6.57;;
38909;SDS011;24676;51.360;12.354;2022-11-13T15:59:51;11.13;;;6.47;;
38909;SDS011;24676;51.360;12.354;2022-11-13T16:02:36;15.38;;;8.40;;
38909;SDS011;24676;51.360;12.354;2022-11-13T16:05:22;12.60;;;5.82;;
38909;SDS011;24676;51.360;12.354;2022-11-13T16:08:11;11.55;;;6.47;;
38909;SDS011;24676;51.360;12.354;2022-11-13T16:10:57;9.73;;;6.50;;
38909;SDS011;24676;51.360;12.354;2022-11-13T16:13:42;15.65;;;7.32;;
38909;SDS011;24676;51.360;12.354;2022-11-13T16:16:27;14.02;;;6.47;;
38909;SDS011;24676;51.360;12.354;2022-11-13T16:19:18;13.02;;;6.60;;
38909;SDS011;24676;51.360;12.354;2022-11-13T16:22:11;11.70;;;6.90;;
38909;SDS011;24676;51.360;12.354;2022-11-13T16:25:03;13.15;;;7.18;;
38909;SDS011;24676;51.360;12.354;2022-11-13T16:27:48;15.52;;;7.88;;
38909;SDS011;24676;51.360;12.354;2022-11-13T16:30:33;11.25;;;7.80;;
38909;SDS011;24676;51.360;12.354;2022-11-13T16:33:17;12.63;;;7.38;;
38909;SDS011;24676;51.360;12.354;2022-11-13T16:36:02;14.23;;;8.05;;
38909;SDS011;24676;51.360;12.354;2022-11-13T16:38:47;12.27;;;6.10;;
38909;SDS011;24676;51.360;12.354;2022-11-13T16:41:31;20.42;;;8.80;;
38909;SDS011;24676;51.360;12.354;2022-11-13T16:44:15;16.80;;;9.40;;
38909;SDS011;24676;51.360;12.354;2022-11-13T16:47:01;12.63;;;8.32;;
38909;SDS011;24676;51.360;12.354;2022-11-13T16:49:45;14.80;;;8.05;;
38909;SDS011;24676;51.360;12.354;2022-11-13T16:52:30;11.15;;;7.25;;
38909;SDS011;24676;51.360;12.354;2022-11-13T16:55:15;15.15;;;8.15;;
38909;SDS011;24676;51.360;12.354;2022-11-13T16:57:59;13.65;;;7.75;;
38909;SDS011;24676;51.360;12.354;2022-11-13T17:00:44;8.73;;;5.57;;
38909;SDS011;24676;51.360;12.354;2022-11-13T17:03:28;14.90;;;7.82;;
38909;SDS011;24676;51.360;12.354;2022-11-13T17:09:03;11.82;;;7.18;;
38909;SDS011;24676;51.360;12.354;2022-11-13T17:11:47;13.18;;;6.88;;
38909;SDS011;24676;51.360;12.354;2022-11-13T17:14:31;9.23;;;5.43;;
38909;SDS011;24676;51.360;12.354;2022-11-13T17:17:17;11.82;;;6.47;;
38909;SDS011;24676;51.360;12.354;2022-11-13T17:20:02;8.98;;;5.90;;
38909;SDS011;24676;51.360;12.354;2022-11-13T17:22:46;12.93;;;6.90;;
38909;SDS011;24676;51.360;12.354;2022-11-13T17:25:31;15.13;;;6.95;;
38909;SDS011;24676;51.360;12.354;2022-11-13T17:28:15;17.27;;;6.38;;
38909;SDS011;24676;51.360;12.354;2022-11-13T17:31:03;10.85;;;5.43;;
38909;SDS011;24676;51.360;12.354;2022-11-13T17:33:50;20.27;;;6.93;;
38909;SDS011;24676;51.360;12.354;2022-11-13T17:36:36;15.48;;;6.28;;
38909;SDS011;24676;51.360;12.354;2022-11-13T17:39:20;11.15;;;6.57;;
38909;SDS011;24676;51.360;12.354;2022-11-13T17:42:05;15.52;;;7.18;;
38909;SDS011;24676;51.360;12.354;2022-11-13T17:44:49;13.10;;;7.07;;
38909;SDS011;24676;51.360;12.354;2022-11-13T17:47:33;16.85;;;6.13;;
38909;SDS011;24676;51.360;12.354;2022-11-13T17:50:17;12.18;;;5.95;;
38909;SDS011;24676;51.360;12.354;2022-11-13T17:53:01;9.32;;;6.20;;
38909;SDS011;24676;51.360;12.354;2022-11-13T17:55:52;14.95;;;7.97;;
38909;SDS011;24676;51.360;12.354;2022-11-13T17:58:43;10.98;;;7.43;;
38909;SDS011;24676;51.360;12.354;2022-11-13T18:01:27;12.65;;;9.15;;
38909;SDS011;24676;51.360;12.354;2022-11-13T18:04:14;11.95;;;6.13;;
38909;SDS011;24676;51.360;12.354;2022-11-13T18:06:58;16.63;;;8.95;;
38909;SDS011;24676;51.360;12.354;2022-11-13T18:09:42;14.57;;;6.03;;
38909;SDS011;24676;51.360;12.354;2022-11-13T18:12:26;15.35;;;7.72;;
38909;SDS011;24676;51.360;12.354;2022-11-13T18:15:11;11.35;;;6.35;;
38909;SDS011;24676;51.360;12.354;2022-11-13T18:17:55;13.38;;;8.57;;
38909;SDS011;24676;51.360;12.354;2022-11-13T18:20:39;22.20;;;8.13;;
38909;SDS011;24676;51.360;12.354;2022-11-13T18:23:24;20.27;;;8.63;;
38909;SDS011;24676;51.360;12.354;2022-11-13T18:26:12;11.88;;;6.50;;
38909;SDS011;24676;51.360;12.354;2022-11-13T18:29:00;12.52;;;7.03;;
38909;SDS011;24676;51.360;12.354;2022-11-13T18:31:44;13.45;;;7.57;;
38909;SDS011;24676;51.360;12.354;2022-11-13T18:34:29;14.75;;;6.80;;
38909;SDS011;24676;51.360;12.354;2022-11-13T18:37:13;18.58;;;9.60;;
38909;SDS011;24676;51.360;12.354;2022-11-13T18:39:57;14.55;;;8.73;;
38909;SDS011;24676;51.360;12.354;2022-11-13T18:42:41;17.77;;;7.82;;
38909;SDS011;24676;51.360;12.354;2022-11-13T18:45:26;26.98;;;10.02;;
38909;SDS011;24676;51.360;12.354;2022-11-13T18:48:10;23.48;;;9.23;;
38909;SDS011;24676;51.360;12.354;2022-11-13T18:50:55;14.13;;;7.45;;
38909;SDS011;24676;51.360;12.354;2022-11-13T18:53:42;11.07;;;7.18;;
38909;SDS011;24676;51.360;12.354;2022-11-13T18:56:29;14.05;;;8.50;;
38909;SDS011;24676;51.360;12.354;2022-11-13T18:59:14;23.80;;;8.93;;
38909;SDS011;24676;51.360;12.354;2022-11-13T19:01:58;13.65;;;7.88;;
38909;SDS011;24676;51.360;12.354;2022-11-13T19:04:42;13.32;;;6.57;;
38909;SDS011;24676;51.360;12.354;2022-11-13T19:07:27;17.10;;;9.75;;
38909;SDS011;24676;51.360;12.354;2022-11-13T19:10:11;14.07;;;6.40;;
38909;SDS011;24676;51.360;12.354;2022-11-13T19:12:55;20.23;;;7.22;;
38909;SDS011;24676;51.360;12.354;2022-11-13T19:15:40;13.88;;;6.03;;
38909;SDS011;24676;51.360;12.354;2022-11-13T19:18:24;11.48;;;7.18;;
38909;SDS011;24676;51.360;12.354;2022-11-13T19:21:09;13.02;;;8.27;;
38909;SDS011;24676;51.360;12.354;2022-11-13T19:23:56;13.63;;;9.60;;
38909;SDS011;24676;51.360;12.354;2022-11-13T19:26:41;13.65;;;9.88;;
38909;SDS011;24676;51.360;12.354;2022-11-13T19:29:26;21.00;;;9.10;;
38909;SDS011;24676;51.360;12.354;2022-11-13T19:32:10;11.52;;;5.95;;
38909;SDS011;24676;51.360;12.354;2022-11-13T19:34:55;16.02;;;9.00;;
38909;SDS011;24676;51.360;12.354;2022-11-13T19:37:39;14.20;;;7.28;;
38909;SDS011;24676;51.360;12.354;2022-11-13T19:40:23;16.30;;;7.57;;
38909;SDS011;24676;51.360;12.354;2022-11-13T19:43:07;18.02;;;9.25;;
38909;SDS011;24676;51.360;12.354;2022-11-13T19:45:51;15.82;;;7.47;;
38909;SDS011;24676;51.360;12.354;2022-11-13T19:48:36;21.80;;;8.50;;
38909;SDS011;24676;51.360;12.354;2022-11-13T19:51:23;22.52;;;8.95;;
38909;SDS011;24676;51.360;12.354;2022-11-13T19:54:07;17.70;;;8.90;;
38909;SDS011;24676;51.360;12.354;2022-11-13T19:56:52;16.88;;;9.07;;
38909;SDS011;24676;51.360;12.354;2022-11-13T19:59:36;15.13;;;9.25;;
38909;SDS011;24676;51.360;12.354;2022-11-13T20:02:22;17.20;;;9.98;;
38909;SDS011;24676;51.360;12.354;2022-11-13T20:05:06;28.30;;;9.77;;
38909;SDS011;24676;51.360;12.354;2022-11-13T20:07:51;23.10;;;12.00;;
38909;SDS011;24676;51.360;12.354;2022-11-13T20:10:40;16.48;;;9.23;;
38909;SDS011;24676;51.360;12.354;2022-11-13T20:13:24;22.08;;;9.70;;
38909;SDS011;24676;51.360;12.354;2022-11-13T20:16:10;16.73;;;8.13;;
38909;SDS011;24676;51.360;12.354;2022-11-13T20:18:57;22.67;;;11.10;;
38909;SDS011;24676;51.360;12.354;2022-11-13T20:21:41;13.80;;;8.18;;
38909;SDS011;24676;51.360;12.354;2022-11-13T20:24:26;13.52;;;7.78;;
38909;SDS011;24676;51.360;12.354;2022-11-13T20:27:10;16.63;;;8.90;;
38909;SDS011;24676;51.360;12.354;2022-11-13T20:29:54;15.05;;;7.93;;
38909;SDS011;24676;51.360;12.354;2022-11-13T20:32:40;15.13;;;7.10;;
38909;SDS011;24676;51.360;12.354;2022-11-13T20:35:24;11.38;;;7.30;;
38909;SDS011;24676;51.360;12.354;2022-11-13T20:38:08;19.55;;;9.40;;
38909;SDS011;24676;51.360;12.354;2022-11-13T20:40:53;13.93;;;5.93;;
38909;SDS011;24676;51.360;12.354;2022-11-13T20:43:37;14.48;;;6.55;;
38909;SDS011;24676;51.360;12.354;2022-11-13T20:46:21;20.10;;;8.27;;
38909;SDS011;24676;51.360;12.354;2022-11-13T20:49:05;17.13;;;9.45;;
38909;SDS011;24676;51.360;12.354;2022-11-13T20:51:50;16.85;;;8.88;;
38909;SDS011;24676;51.360;12.354;2022-11-13T20:54:34;17.40;;;7.10;;
38909;SDS011;24676;51.360;12.354;2022-11-13T20:57:19;11.32;;;6.60;;
38909;SDS011;24676;51.360;12.354;2022-11-13T21:00:04;14.30;;;8.05;;
38909;SDS011;24676;51.360;12.354;2022-11-13T21:02:49;20.08;;;7.50;;
38909;SDS011;24676;51.360;12.354;2022-11-13T21:05:34;16.77;;;7.82;;
38909;SDS011;24676;51.360;12.354;2022-11-13T21:08:18;12.90;;;6.57;;
38909;SDS011;24676;51.360;12.354;2022-11-13T21:11:02;12.05;;;7.68;;
38909;SDS011;24676;51.360;12.354;2022-11-13T21:13:48;14.85;;;7.03;;
38909;SDS011;24676;51.360;12.354;2022-11-13T21:16:34;16.17;;;7.55;;
38909;SDS011;24676;51.360;12.354;2022-11-13T21:19:18;12.80;;;6.32;;
38909;SDS011;24676;51.360;12.354;2022-11-13T21:22:02;10.20;;;5.18;;
38909;SDS011;24676;51.360;12.354;2022-11-13T21:24:46;16.52;;;9.27;;
38909;SDS011;24676;51.360;12.354;2022-11-13T21:27:31;14.23;;;7.05;;
38909;SDS011;24676;51.360;12.354;2022-11-13T21:30:15;16.70;;;7.72;;
38909;SDS011;24676;51.360;12.354;2022-11-13T21:32:59;8.60;;;6.03;;
38909;SDS011;24676;51.360;12.354;2022-11-13T21:35:44;12.10;;;6.97;;
38909;SDS011;24676;51.360;12.354;2022-11-13T21:38:28;16.98;;;7.72;;
38909;SDS011;24676;51.360;12.354;2022-11-13T21:41:13;17.58;;;7.57;;
38909;SDS011;24676;51.360;12.354;2022-11-13T21:44:09;13.85;;;7.20;;
38909;SDS011;24676;51.360;12.354;2022-11-13T21:46:53;8.15;;;5.25;;
38909;SDS011;24676;51.360;12.354;2022-11-13T21:49:38;11.35;;;6.22;;
38909;SDS011;24676;51.360;12.354;2022-11-13T21:52:23;7.82;;;7.03;;
38909;SDS011;24676;51.360;12.354;2022-11-13T21:55:07;9.55;;;5.55;;
38909;SDS011;24676;51.360;12.354;2022-11-13T21:57:52;14.30;;;6.32;;
